sensor_id;sensor_type;location;lat;lon;timestamp;temperature;humidity
41142;SHT31;63666;52.284;20.890;2023-07-20T00:01:51;25.94;46.30
41142;SHT31;63666;52.284;20.890;2023-07-20T00:04:28;25.95;46.32
41142;SHT31;63666;52.284;20.890;2023-07-20T00:07:04;25.93;46.36
41142;SHT31;63666;52.284;20.890;2023-07-20T00:09:38;25.94;46.30
41142;SHT31;63666;52.284;20.890;2023-07-20T00:12:13;25.93;46.42
41142;SHT31;63666;52.284;20.890;2023-07-20T00:14:47;25.93;46.46
41142;SHT31;63666;52.284;20.890;2023-07-20T00:17:23;25.89;46.67
41142;SHT31;63666;52.284;20.890;2023-07-20T00:20:00;25.86;46.69
41142;SHT31;63666;52.284;20.890;2023-07-20T00:22:37;25.85;46.72
41142;SHT31;63666;52.284;20.890;2023-07-20T00:25:11;25.86;46.70
41142;SHT31;63666;52.284;20.890;2023-07-20T00:27:45;25.87;46.71
41142;SHT31;63666;52.284;20.890;2023-07-20T00:30:19;25.87;46.60
41142;SHT31;63666;52.284;20.890;2023-07-20T00:32:54;25.88;46.50
41142;SHT31;63666;52.284;20.890;2023-07-20T00:35:28;25.87;46.50
41142;SHT31;63666;52.284;20.890;2023-07-20T00:38:04;25.88;46.45
41142;SHT31;63666;52.284;20.890;2023-07-20T00:40:39;25.87;46.49
41142;SHT31;63666;52.284;20.890;2023-07-20T00:43:14;25.88;46.55
41142;SHT31;63666;52.284;20.890;2023-07-20T00:45:49;25.88;46.49
41142;SHT31;63666;52.284;20.890;2023-07-20T00:48:23;25.86;46.50
41142;SHT31;63666;52.284;20.890;2023-07-20T00:50:57;25.86;46.51
41142;SHT31;63666;52.284;20.890;2023-07-20T00:53:32;25.86;46.51
41142;SHT31;63666;52.284;20.890;2023-07-20T00:56:07;25.83;46.53
41142;SHT31;63666;52.284;20.890;2023-07-20T00:58:41;25.84;46.51
41142;SHT31;63666;52.284;20.890;2023-07-20T01:01:15;25.84;46.51
41142;SHT31;63666;52.284;20.890;2023-07-20T01:03:49;25.84;46.51
41142;SHT31;63666;52.284;20.890;2023-07-20T01:06:26;25.82;46.52
41142;SHT31;63666;52.284;20.890;2023-07-20T01:09:11;25.82;46.52
41142;SHT31;63666;52.284;20.890;2023-07-20T01:11:52;25.83;46.50
41142;SHT31;63666;52.284;20.890;2023-07-20T01:14:33;25.83;46.51
41142;SHT31;63666;52.284;20.890;2023-07-20T01:17:08;25.82;46.51
41142;SHT31;63666;52.284;20.890;2023-07-20T01:19:43;25.81;46.50
41142;SHT31;63666;52.284;20.890;2023-07-20T01:22:19;25.81;46.53
41142;SHT31;63666;52.284;20.890;2023-07-20T01:25:29;25.78;46.62
41142;SHT31;63666;52.284;20.890;2023-07-20T01:28:32;25.78;46.65
41142;SHT31;63666;52.284;20.890;2023-07-20T01:31:29;25.77;46.61
41142;SHT31;63666;52.284;20.890;2023-07-20T01:34:05;25.77;46.63
41142;SHT31;63666;52.284;20.890;2023-07-20T01:36:44;25.77;46.60
41142;SHT31;63666;52.284;20.890;2023-07-20T01:39:20;25.76;46.62
41142;SHT31;63666;52.284;20.890;2023-07-20T01:41:55;25.77;46.61
41142;SHT31;63666;52.284;20.890;2023-07-20T01:44:29;25.75;46.62
41142;SHT31;63666;52.284;20.890;2023-07-20T01:47:04;25.75;46.68
41142;SHT31;63666;52.284;20.890;2023-07-20T01:49:38;25.73;46.68
41142;SHT31;63666;52.284;20.890;2023-07-20T01:52:12;25.74;46.68
41142;SHT31;63666;52.284;20.890;2023-07-20T01:54:46;25.73;46.73
41142;SHT31;63666;52.284;20.890;2023-07-20T01:57:20;25.71;46.80
41142;SHT31;63666;52.284;20.890;2023-07-20T01:59:54;25.72;46.80
41142;SHT31;63666;52.284;20.890;2023-07-20T02:02:28;25.70;46.80
41142;SHT31;63666;52.284;20.890;2023-07-20T02:05:04;25.69;46.89
41142;SHT31;63666;52.284;20.890;2023-07-20T02:07:38;25.68;47.01
41142;SHT31;63666;52.284;20.890;2023-07-20T02:10:13;25.68;46.94
41142;SHT31;63666;52.284;20.890;2023-07-20T02:12:50;25.67;46.93
41142;SHT31;63666;52.284;20.890;2023-07-20T02:15:24;25.67;46.93
41142;SHT31;63666;52.284;20.890;2023-07-20T02:17:58;25.68;46.93
41142;SHT31;63666;52.284;20.890;2023-07-20T02:20:32;25.67;46.90
41142;SHT31;63666;52.284;20.890;2023-07-20T02:23:07;25.67;46.92
41142;SHT31;63666;52.284;20.890;2023-07-20T02:25:42;25.66;46.95
41142;SHT31;63666;52.284;20.890;2023-07-20T02:28:16;25.67;46.92
41142;SHT31;63666;52.284;20.890;2023-07-20T02:30:50;25.66;46.96
41142;SHT31;63666;52.284;20.890;2023-07-20T02:33:24;25.65;46.97
41142;SHT31;63666;52.284;20.890;2023-07-20T02:35:58;25.65;46.98
41142;SHT31;63666;52.284;20.890;2023-07-20T02:38:32;25.64;47.00
41142;SHT31;63666;52.284;20.890;2023-07-20T02:41:05;25.63;47.03
41142;SHT31;63666;52.284;20.890;2023-07-20T02:43:40;25.63;47.01
41142;SHT31;63666;52.284;20.890;2023-07-20T02:46:14;25.62;47.03
41142;SHT31;63666;52.284;20.890;2023-07-20T02:48:48;25.61;47.03
41142;SHT31;63666;52.284;20.890;2023-07-20T02:51:23;25.60;47.03
41142;SHT31;63666;52.284;20.890;2023-07-20T02:53:56;25.60;47.02
41142;SHT31;63666;52.284;20.890;2023-07-20T02:56:30;25.61;47.03
41142;SHT31;63666;52.284;20.890;2023-07-20T02:59:05;25.62;47.02
41142;SHT31;63666;52.284;20.890;2023-07-20T03:01:40;25.60;47.03
41142;SHT31;63666;52.284;20.890;2023-07-20T03:04:14;25.58;47.06
41142;SHT31;63666;52.284;20.890;2023-07-20T03:06:48;25.58;47.06
41142;SHT31;63666;52.284;20.890;2023-07-20T03:09:22;25.59;47.01
41142;SHT31;63666;52.284;20.890;2023-07-20T03:11:56;25.59;47.01
41142;SHT31;63666;52.284;20.890;2023-07-20T03:14:30;25.59;47.01
41142;SHT31;63666;52.284;20.890;2023-07-20T03:17:05;25.57;47.07
41142;SHT31;63666;52.284;20.890;2023-07-20T03:19:39;25.57;47.05
41142;SHT31;63666;52.284;20.890;2023-07-20T03:22:13;25.57;47.05
41142;SHT31;63666;52.284;20.890;2023-07-20T03:24:47;25.56;47.06
41142;SHT31;63666;52.284;20.890;2023-07-20T03:27:22;25.56;47.09
41142;SHT31;63666;52.284;20.890;2023-07-20T03:29:56;25.56;47.10
41142;SHT31;63666;52.284;20.890;2023-07-20T03:32:31;25.54;47.16
41142;SHT31;63666;52.284;20.890;2023-07-20T03:35:07;25.53;47.24
41142;SHT31;63666;52.284;20.890;2023-07-20T03:37:41;25.47;47.50
41142;SHT31;63666;52.284;20.890;2023-07-20T03:40:15;25.46;47.58
41142;SHT31;63666;52.284;20.890;2023-07-20T03:42:52;25.30;48.14
41142;SHT31;63666;52.284;20.890;2023-07-20T03:45:28;25.18;48.54
41142;SHT31;63666;52.284;20.890;2023-07-20T03:48:02;25.30;48.18
41142;SHT31;63666;52.284;20.890;2023-07-20T03:50:37;25.40;47.93
41142;SHT31;63666;52.284;20.890;2023-07-20T03:53:11;25.41;47.88
41142;SHT31;63666;52.284;20.890;2023-07-20T03:55:45;25.41;47.91
41142;SHT31;63666;52.284;20.890;2023-07-20T03:58:21;25.43;47.84
41142;SHT31;63666;52.284;20.890;2023-07-20T04:00:55;25.43;47.86
41142;SHT31;63666;52.284;20.890;2023-07-20T04:03:33;25.42;47.91
41142;SHT31;63666;52.284;20.890;2023-07-20T04:06:09;25.44;47.90
41142;SHT31;63666;52.284;20.890;2023-07-20T04:08:44;25.44;47.93
41142;SHT31;63666;52.284;20.890;2023-07-20T04:11:18;25.43;48.00
41142;SHT31;63666;52.284;20.890;2023-07-20T04:14:12;25.39;48.19
41142;SHT31;63666;52.284;20.890;2023-07-20T04:16:47;25.38;48.34
41142;SHT31;63666;52.284;20.890;2023-07-20T04:19:22;25.36;48.47
41142;SHT31;63666;52.284;20.890;2023-07-20T04:21:56;25.32;48.71
41142;SHT31;63666;52.284;20.890;2023-07-20T04:24:30;25.31;48.85
41142;SHT31;63666;52.284;20.890;2023-07-20T04:27:06;25.21;49.26
41142;SHT31;63666;52.284;20.890;2023-07-20T04:29:42;25.10;49.68
41142;SHT31;63666;52.284;20.890;2023-07-20T04:32:18;25.00;50.07
41142;SHT31;63666;52.284;20.890;2023-07-20T04:34:52;24.87;50.42
41142;SHT31;63666;52.284;20.890;2023-07-20T04:37:26;24.80;50.69
41142;SHT31;63666;52.284;20.890;2023-07-20T04:40:01;24.82;50.60
41142;SHT31;63666;52.284;20.890;2023-07-20T04:42:38;24.90;50.30
41142;SHT31;63666;52.284;20.890;2023-07-20T04:45:15;24.87;50.49
41142;SHT31;63666;52.284;20.890;2023-07-20T04:47:49;24.84;50.54
41142;SHT31;63666;52.284;20.890;2023-07-20T04:50:25;24.95;50.28
41142;SHT31;63666;52.284;20.890;2023-07-20T04:52:59;24.72;51.04
41142;SHT31;63666;52.284;20.890;2023-07-20T04:55:35;24.70;51.07
41142;SHT31;63666;52.284;20.890;2023-07-20T04:58:10;24.82;50.71
41142;SHT31;63666;52.284;20.890;2023-07-20T05:00:44;24.81;50.82
41142;SHT31;63666;52.284;20.890;2023-07-20T05:03:18;24.94;50.44
41142;SHT31;63666;52.284;20.890;2023-07-20T05:05:53;25.03;50.15
41142;SHT31;63666;52.284;20.890;2023-07-20T05:08:30;24.95;50.49
41142;SHT31;63666;52.284;20.890;2023-07-20T05:11:04;24.90;50.57
41142;SHT31;63666;52.284;20.890;2023-07-20T05:13:41;24.88;50.78
41142;SHT31;63666;52.284;20.890;2023-07-20T05:16:15;24.88;50.81
41142;SHT31;63666;52.284;20.890;2023-07-20T05:18:50;24.73;51.47
41142;SHT31;63666;52.284;20.890;2023-07-20T05:21:25;24.67;51.71
41142;SHT31;63666;52.284;20.890;2023-07-20T05:23:59;24.69;51.55
41142;SHT31;63666;52.284;20.890;2023-07-20T05:26:33;24.74;51.20
41142;SHT31;63666;52.284;20.890;2023-07-20T05:29:07;24.80;51.11
41142;SHT31;63666;52.284;20.890;2023-07-20T05:31:41;24.65;51.57
41142;SHT31;63666;52.284;20.890;2023-07-20T05:34:15;24.62;51.50
41142;SHT31;63666;52.284;20.890;2023-07-20T05:36:51;24.64;51.37
41142;SHT31;63666;52.284;20.890;2023-07-20T05:39:24;24.68;51.06
41142;SHT31;63666;52.284;20.890;2023-07-20T05:41:58;24.92;50.21
41142;SHT31;63666;52.284;20.890;2023-07-20T05:44:33;25.04;50.58
41142;SHT31;63666;52.284;20.890;2023-07-20T05:47:09;25.00;51.78
41142;SHT31;63666;52.284;20.890;2023-07-20T05:49:43;24.99;51.67
41142;SHT31;63666;52.284;20.890;2023-07-20T05:52:17;24.99;52.13
41142;SHT31;63666;52.284;20.890;2023-07-20T05:54:51;24.98;53.13
41142;SHT31;63666;52.284;20.890;2023-07-20T05:57:26;24.94;53.60
41142;SHT31;63666;52.284;20.890;2023-07-20T06:00:00;24.89;53.54
41142;SHT31;63666;52.284;20.890;2023-07-20T06:02:35;24.90;52.64
41142;SHT31;63666;52.284;20.890;2023-07-20T06:05:10;25.00;52.40
41142;SHT31;63666;52.284;20.890;2023-07-20T06:07:44;25.07;52.18
41142;SHT31;63666;52.284;20.890;2023-07-20T06:10:18;25.09;52.09
41142;SHT31;63666;52.284;20.890;2023-07-20T06:12:52;24.94;52.42
41142;SHT31;63666;52.284;20.890;2023-07-20T06:15:26;24.99;52.35
41142;SHT31;63666;52.284;20.890;2023-07-20T06:18:01;25.03;52.22
41142;SHT31;63666;52.284;20.890;2023-07-20T06:20:35;25.08;51.99
41142;SHT31;63666;52.284;20.890;2023-07-20T06:23:09;25.15;51.96
41142;SHT31;63666;52.284;20.890;2023-07-20T06:25:43;25.16;52.34
41142;SHT31;63666;52.284;20.890;2023-07-20T06:28:17;24.28;54.47
41142;SHT31;63666;52.284;20.890;2023-07-20T06:30:51;23.87;55.61
41142;SHT31;63666;52.284;20.890;2023-07-20T06:33:31;23.56;56.73
41142;SHT31;63666;52.284;20.890;2023-07-20T06:36:05;23.63;56.31
41142;SHT31;63666;52.284;20.890;2023-07-20T06:38:40;23.64;56.34
41142;SHT31;63666;52.284;20.890;2023-07-20T06:41:33;23.69;56.00
41142;SHT31;63666;52.284;20.890;2023-07-20T06:44:10;23.75;55.70
41142;SHT31;63666;52.284;20.890;2023-07-20T06:46:45;23.25;57.33
41142;SHT31;63666;52.284;20.890;2023-07-20T06:49:25;23.84;55.39
41142;SHT31;63666;52.284;20.890;2023-07-20T06:52:00;24.26;54.25
41142;SHT31;63666;52.284;20.890;2023-07-20T06:54:34;24.07;54.60
41142;SHT31;63666;52.284;20.890;2023-07-20T06:57:13;24.11;54.61
41142;SHT31;63666;52.284;20.890;2023-07-20T06:59:49;24.23;54.48
41142;SHT31;63666;52.284;20.890;2023-07-20T07:02:23;24.20;54.56
41142;SHT31;63666;52.284;20.890;2023-07-20T07:04:58;24.27;54.27
41142;SHT31;63666;52.284;20.890;2023-07-20T07:07:49;23.89;55.09
41142;SHT31;63666;52.284;20.890;2023-07-20T07:10:23;24.24;54.53
41142;SHT31;63666;52.284;20.890;2023-07-20T07:12:57;24.44;54.48
41142;SHT31;63666;52.284;20.890;2023-07-20T07:15:34;24.04;55.34
41142;SHT31;63666;52.284;20.890;2023-07-20T07:18:09;24.28;54.85
41142;SHT31;63666;52.284;20.890;2023-07-20T07:20:50;24.08;55.32
41142;SHT31;63666;52.284;20.890;2023-07-20T07:23:31;24.33;54.80
41142;SHT31;63666;52.284;20.890;2023-07-20T07:26:05;24.01;55.20
41142;SHT31;63666;52.284;20.890;2023-07-20T07:28:39;24.02;55.19
41142;SHT31;63666;52.284;20.890;2023-07-20T07:31:13;24.09;55.07
41142;SHT31;63666;52.284;20.890;2023-07-20T07:33:48;23.59;56.36
41142;SHT31;63666;52.284;20.890;2023-07-20T07:36:23;24.05;55.10
41142;SHT31;63666;52.284;20.890;2023-07-20T07:38:57;24.24;54.88
41142;SHT31;63666;52.284;20.890;2023-07-20T07:41:51;23.95;55.66
41142;SHT31;63666;52.284;20.890;2023-07-20T07:44:28;23.93;55.85
41142;SHT31;63666;52.284;20.890;2023-07-20T07:47:04;23.43;57.09
41142;SHT31;63666;52.284;20.890;2023-07-20T07:49:39;23.42;57.03
41142;SHT31;63666;52.284;20.890;2023-07-20T07:52:15;22.88;58.59
41142;SHT31;63666;52.284;20.890;2023-07-20T07:54:50;23.39;56.68
41142;SHT31;63666;52.284;20.890;2023-07-20T07:57:27;23.41;56.59
41142;SHT31;63666;52.284;20.890;2023-07-20T08:00:00;24.16;54.61
41142;SHT31;63666;52.284;20.890;2023-07-20T08:02:41;24.75;52.96
41142;SHT31;63666;52.284;20.890;2023-07-20T08:05:15;24.69;53.62
41142;SHT31;63666;52.284;20.890;2023-07-20T08:07:50;24.81;52.84
41142;SHT31;63666;52.284;20.890;2023-07-20T08:10:24;25.28;51.13
41142;SHT31;63666;52.284;20.890;2023-07-20T08:12:58;25.40;50.59
41142;SHT31;63666;52.284;20.890;2023-07-20T08:15:32;25.47;50.14
41142;SHT31;63666;52.284;20.890;2023-07-20T08:18:05;25.44;50.25
41142;SHT31;63666;52.284;20.890;2023-07-20T08:20:40;25.44;50.57
41142;SHT31;63666;52.284;20.890;2023-07-20T08:23:18;25.44;50.71
41142;SHT31;63666;52.284;20.890;2023-07-20T08:25:54;25.42;50.74
41142;SHT31;63666;52.284;20.890;2023-07-20T08:28:28;25.36;50.88
41142;SHT31;63666;52.284;20.890;2023-07-20T08:31:01;25.34;51.00
41142;SHT31;63666;52.284;20.890;2023-07-20T08:33:37;25.37;51.10
41142;SHT31;63666;52.284;20.890;2023-07-20T08:36:12;25.41;50.57
41142;SHT31;63666;52.284;20.890;2023-07-20T08:38:46;25.34;51.34
41142;SHT31;63666;52.284;20.890;2023-07-20T08:41:20;25.33;51.58
41142;SHT31;63666;52.284;20.890;2023-07-20T08:43:54;25.35;51.50
41142;SHT31;63666;52.284;20.890;2023-07-20T08:46:28;25.36;51.82
41142;SHT31;63666;52.284;20.890;2023-07-20T08:49:04;25.29;52.20
41142;SHT31;63666;52.284;20.890;2023-07-20T08:51:38;25.26;52.69
41142;SHT31;63666;52.284;20.890;2023-07-20T08:54:16;25.15;52.94
41142;SHT31;63666;52.284;20.890;2023-07-20T08:56:53;25.24;52.85
41142;SHT31;63666;52.284;20.890;2023-07-20T08:59:32;25.42;51.64
41142;SHT31;63666;52.284;20.890;2023-07-20T09:02:08;25.50;51.33
41142;SHT31;63666;52.284;20.890;2023-07-20T09:04:49;25.56;51.04
41142;SHT31;63666;52.284;20.890;2023-07-20T09:07:23;25.62;50.95
41142;SHT31;63666;52.284;20.890;2023-07-20T09:09:58;25.66;50.61
41142;SHT31;63666;52.284;20.890;2023-07-20T09:12:36;25.66;50.52
41142;SHT31;63666;52.284;20.890;2023-07-20T09:15:12;25.65;50.40
41142;SHT31;63666;52.284;20.890;2023-07-20T09:17:47;25.65;50.89
41142;SHT31;63666;52.284;20.890;2023-07-20T09:20:23;25.67;50.41
41142;SHT31;63666;52.284;20.890;2023-07-20T09:22:57;25.64;50.42
41142;SHT31;63666;52.284;20.890;2023-07-20T09:25:32;25.64;50.29
41142;SHT31;63666;52.284;20.890;2023-07-20T09:28:08;25.64;50.33
41142;SHT31;63666;52.284;20.890;2023-07-20T09:30:43;25.63;51.09
41142;SHT31;63666;52.284;20.890;2023-07-20T09:33:22;25.58;50.86
41142;SHT31;63666;52.284;20.890;2023-07-20T09:36:02;25.50;51.90
41142;SHT31;63666;52.284;20.890;2023-07-20T09:38:58;25.37;51.95
41142;SHT31;63666;52.284;20.890;2023-07-20T09:41:40;25.29;52.03
41142;SHT31;63666;52.284;20.890;2023-07-20T09:44:15;25.32;51.87
41142;SHT31;63666;52.284;20.890;2023-07-20T09:46:50;25.28;51.85
41142;SHT31;63666;52.284;20.890;2023-07-20T09:49:28;25.17;52.01
41142;SHT31;63666;52.284;20.890;2023-07-20T09:52:21;25.28;51.55
41142;SHT31;63666;52.284;20.890;2023-07-20T09:54:59;25.32;51.36
41142;SHT31;63666;52.284;20.890;2023-07-20T09:57:35;25.20;51.90
41142;SHT31;63666;52.284;20.890;2023-07-20T10:00:10;25.09;52.35
41142;SHT31;63666;52.284;20.890;2023-07-20T10:02:48;25.10;52.31
41142;SHT31;63666;52.284;20.890;2023-07-20T10:05:24;25.32;52.65
41142;SHT31;63666;52.284;20.890;2023-07-20T10:08:00;25.48;51.40
41142;SHT31;63666;52.284;20.890;2023-07-20T10:10:40;25.54;51.93
41142;SHT31;63666;52.284;20.890;2023-07-20T10:13:17;25.56;53.42
41142;SHT31;63666;52.284;20.890;2023-07-20T10:15:57;25.54;52.42
41142;SHT31;63666;52.284;20.890;2023-07-20T10:18:38;25.66;51.61
41142;SHT31;63666;52.284;20.890;2023-07-20T10:21:21;25.56;54.20
41142;SHT31;63666;52.284;20.890;2023-07-20T10:23:58;25.61;54.13
41142;SHT31;63666;52.284;20.890;2023-07-20T10:26:33;25.49;54.96
41142;SHT31;63666;52.284;20.890;2023-07-20T10:29:10;25.59;53.49
41142;SHT31;63666;52.284;20.890;2023-07-20T10:31:46;25.67;51.26
41142;SHT31;63666;52.284;20.890;2023-07-20T10:34:23;25.53;52.38
41142;SHT31;63666;52.284;20.890;2023-07-20T10:36:57;25.45;55.21
41142;SHT31;63666;52.284;20.890;2023-07-20T10:39:32;25.62;54.60
41142;SHT31;63666;52.284;20.890;2023-07-20T10:42:07;25.65;51.85
41142;SHT31;63666;52.284;20.890;2023-07-20T10:44:42;25.56;51.84
41142;SHT31;63666;52.284;20.890;2023-07-20T10:47:18;25.61;51.54
41142;SHT31;63666;52.284;20.890;2023-07-20T10:49:58;25.52;51.95
41142;SHT31;63666;52.284;20.890;2023-07-20T10:52:38;25.42;52.36
41142;SHT31;63666;52.284;20.890;2023-07-20T10:55:15;25.44;52.11
41142;SHT31;63666;52.284;20.890;2023-07-20T11:00:59;25.55;51.49
41142;SHT31;63666;52.284;20.890;2023-07-20T11:03:36;25.61;51.43
41142;SHT31;63666;52.284;20.890;2023-07-20T11:09:08;25.65;51.07
41142;SHT31;63666;52.284;20.890;2023-07-20T11:11:44;25.68;51.06
41142;SHT31;63666;52.284;20.890;2023-07-20T11:14:22;25.66;51.05
41142;SHT31;63666;52.284;20.890;2023-07-20T11:16:57;25.51;51.37
41142;SHT31;63666;52.284;20.890;2023-07-20T11:19:48;25.44;51.56
41142;SHT31;63666;52.284;20.890;2023-07-20T11:22:31;25.45;51.68
41142;SHT31;63666;52.284;20.890;2023-07-20T11:25:06;25.43;51.64
41142;SHT31;63666;52.284;20.890;2023-07-20T11:27:45;25.55;51.31
41142;SHT31;63666;52.284;20.890;2023-07-20T11:30:19;25.69;50.98
41142;SHT31;63666;52.284;20.890;2023-07-20T11:32:52;25.69;50.69
41142;SHT31;63666;52.284;20.890;2023-07-20T11:35:27;25.70;50.74
41142;SHT31;63666;52.284;20.890;2023-07-20T11:38:01;25.71;50.45
41142;SHT31;63666;52.284;20.890;2023-07-20T11:40:36;25.70;50.52
41142;SHT31;63666;52.284;20.890;2023-07-20T11:43:14;25.71;50.65
41142;SHT31;63666;52.284;20.890;2023-07-20T11:45:50;25.70;50.46
41142;SHT31;63666;52.284;20.890;2023-07-20T11:48:24;25.68;50.60
41142;SHT31;63666;52.284;20.890;2023-07-20T11:50:57;25.68;50.36
41142;SHT31;63666;52.284;20.890;2023-07-20T11:53:31;25.67;50.42
41142;SHT31;63666;52.284;20.890;2023-07-20T11:56:04;25.74;50.29
41142;SHT31;63666;52.284;20.890;2023-07-20T11:58:42;25.75;50.17
41142;SHT31;63666;52.284;20.890;2023-07-20T12:01:17;25.72;50.30
41142;SHT31;63666;52.284;20.890;2023-07-20T12:03:51;25.73;50.20
41142;SHT31;63666;52.284;20.890;2023-07-20T12:06:25;25.73;50.11
41142;SHT31;63666;52.284;20.890;2023-07-20T12:09:02;25.75;50.14
41142;SHT31;63666;52.284;20.890;2023-07-20T12:11:36;25.72;50.27
41142;SHT31;63666;52.284;20.890;2023-07-20T12:14:13;25.72;50.27
41142;SHT31;63666;52.284;20.890;2023-07-20T12:16:52;25.70;50.31
41142;SHT31;63666;52.284;20.890;2023-07-20T12:19:26;25.74;50.28
41142;SHT31;63666;52.284;20.890;2023-07-20T12:22:03;25.73;50.33
41142;SHT31;63666;52.284;20.890;2023-07-20T12:24:38;25.71;50.41
41142;SHT31;63666;52.284;20.890;2023-07-20T12:27:14;25.69;50.48
41142;SHT31;63666;52.284;20.890;2023-07-20T12:29:48;25.65;50.61
41142;SHT31;63666;52.284;20.890;2023-07-20T12:32:23;25.68;50.40
41142;SHT31;63666;52.284;20.890;2023-07-20T12:34:57;25.66;50.32
41142;SHT31;63666;52.284;20.890;2023-07-20T12:37:31;25.67;50.32
41142;SHT31;63666;52.284;20.890;2023-07-20T12:40:06;25.71;50.19
41142;SHT31;63666;52.284;20.890;2023-07-20T12:42:41;25.69;50.17
41142;SHT31;63666;52.284;20.890;2023-07-20T12:45:15;25.65;50.44
41142;SHT31;63666;52.284;20.890;2023-07-20T12:47:49;25.64;50.49
41142;SHT31;63666;52.284;20.890;2023-07-20T12:50:23;25.59;50.93
41142;SHT31;63666;52.284;20.890;2023-07-20T12:52:57;25.56;51.64
41142;SHT31;63666;52.284;20.890;2023-07-20T12:55:33;25.56;51.56
41142;SHT31;63666;52.284;20.890;2023-07-20T12:58:09;25.49;52.08
41142;SHT31;63666;52.284;20.890;2023-07-20T13:00:44;25.47;52.38
41142;SHT31;63666;52.284;20.890;2023-07-20T13:03:18;25.46;52.80
41142;SHT31;63666;52.284;20.890;2023-07-20T13:05:56;25.55;52.96
41142;SHT31;63666;52.284;20.890;2023-07-20T13:08:32;25.61;52.23
41142;SHT31;63666;52.284;20.890;2023-07-20T13:11:07;25.86;52.25
41142;SHT31;63666;52.284;20.890;2023-07-20T13:13:41;25.82;51.75
41142;SHT31;63666;52.284;20.890;2023-07-20T13:16:15;25.81;51.73
41142;SHT31;63666;52.284;20.890;2023-07-20T13:18:49;25.84;51.52
41142;SHT31;63666;52.284;20.890;2023-07-20T13:21:23;25.84;51.62
41142;SHT31;63666;52.284;20.890;2023-07-20T13:23:58;25.85;51.68
41142;SHT31;63666;52.284;20.890;2023-07-20T13:26:33;25.86;51.68
41142;SHT31;63666;52.284;20.890;2023-07-20T13:29:07;25.84;51.77
41142;SHT31;63666;52.284;20.890;2023-07-20T13:31:41;25.80;52.06
41142;SHT31;63666;52.284;20.890;2023-07-20T13:34:17;25.78;52.29
41142;SHT31;63666;52.284;20.890;2023-07-20T13:36:54;25.77;52.78
41142;SHT31;63666;52.284;20.890;2023-07-20T13:39:28;25.72;53.22
41142;SHT31;63666;52.284;20.890;2023-07-20T13:42:02;25.69;53.29
41142;SHT31;63666;52.284;20.890;2023-07-20T13:44:39;25.68;53.33
41142;SHT31;63666;52.284;20.890;2023-07-20T13:47:14;25.74;53.14
41142;SHT31;63666;52.284;20.890;2023-07-20T13:49:50;25.98;52.53
41142;SHT31;63666;52.284;20.890;2023-07-20T13:52:28;25.80;52.74
41142;SHT31;63666;52.284;20.890;2023-07-20T13:55:05;25.85;52.68
41142;SHT31;63666;52.284;20.890;2023-07-20T13:57:40;25.77;53.09
41142;SHT31;63666;52.284;20.890;2023-07-20T14:00:15;25.74;53.62
41142;SHT31;63666;52.284;20.890;2023-07-20T14:02:52;25.86;52.98
41142;SHT31;63666;52.284;20.890;2023-07-20T14:05:29;25.83;52.64
41142;SHT31;63666;52.284;20.890;2023-07-20T14:08:07;25.80;53.00
41142;SHT31;63666;52.284;20.890;2023-07-20T14:10:41;25.88;52.57
41142;SHT31;63666;52.284;20.890;2023-07-20T14:13:18;25.91;52.19
41142;SHT31;63666;52.284;20.890;2023-07-20T14:16:06;25.79;52.82
41142;SHT31;63666;52.284;20.890;2023-07-20T14:18:40;25.69;53.56
41142;SHT31;63666;52.284;20.890;2023-07-20T14:21:18;25.63;53.58
41142;SHT31;63666;52.284;20.890;2023-07-20T14:23:54;25.58;53.61
41142;SHT31;63666;52.284;20.890;2023-07-20T14:26:30;25.69;52.65
41142;SHT31;63666;52.284;20.890;2023-07-20T14:29:04;25.71;52.14
41142;SHT31;63666;52.284;20.890;2023-07-20T14:31:38;25.74;51.60
41142;SHT31;63666;52.284;20.890;2023-07-20T14:34:14;25.77;50.79
41142;SHT31;63666;52.284;20.890;2023-07-20T14:36:48;25.74;50.89
41142;SHT31;63666;52.284;20.890;2023-07-20T14:39:22;25.70;51.69
41142;SHT31;63666;52.284;20.890;2023-07-20T14:41:56;25.67;51.86
41142;SHT31;63666;52.284;20.890;2023-07-20T14:44:30;25.65;52.01
41142;SHT31;63666;52.284;20.890;2023-07-20T14:47:07;25.66;51.80
41142;SHT31;63666;52.284;20.890;2023-07-20T14:49:44;25.66;51.20
41142;SHT31;63666;52.284;20.890;2023-07-20T14:52:18;25.66;51.46
41142;SHT31;63666;52.284;20.890;2023-07-20T14:54:56;25.60;52.12
41142;SHT31;63666;52.284;20.890;2023-07-20T14:57:31;25.58;52.26
41142;SHT31;63666;52.284;20.890;2023-07-20T15:00:06;25.56;52.34
41142;SHT31;63666;52.284;20.890;2023-07-20T15:02:42;25.54;52.38
41142;SHT31;63666;52.284;20.890;2023-07-20T15:05:21;25.61;51.95
41142;SHT31;63666;52.284;20.890;2023-07-20T15:07:56;25.67;51.62
41142;SHT31;63666;52.284;20.890;2023-07-20T15:10:30;25.64;51.42
41142;SHT31;63666;52.284;20.890;2023-07-20T15:13:05;25.66;51.31
41142;SHT31;63666;52.284;20.890;2023-07-20T15:15:39;25.74;51.25
41142;SHT31;63666;52.284;20.890;2023-07-20T15:18:13;25.75;51.04
41142;SHT31;63666;52.284;20.890;2023-07-20T15:20:56;25.79;50.67
41142;SHT31;63666;52.284;20.890;2023-07-20T15:23:30;25.77;50.55
41142;SHT31;63666;52.284;20.890;2023-07-20T15:26:04;25.79;50.49
41142;SHT31;63666;52.284;20.890;2023-07-20T15:28:37;25.83;50.43
41142;SHT31;63666;52.284;20.890;2023-07-20T15:31:11;25.85;50.34
41142;SHT31;63666;52.284;20.890;2023-07-20T15:33:45;25.89;50.32
41142;SHT31;63666;52.284;20.890;2023-07-20T15:36:21;25.91;50.29
41142;SHT31;63666;52.284;20.890;2023-07-20T15:38:56;25.90;50.24
41142;SHT31;63666;52.284;20.890;2023-07-20T15:41:31;25.90;50.24
41142;SHT31;63666;52.284;20.890;2023-07-20T15:44:05;25.95;50.17
41142;SHT31;63666;52.284;20.890;2023-07-20T15:46:46;25.92;50.06
41142;SHT31;63666;52.284;20.890;2023-07-20T15:49:21;25.65;50.36
41142;SHT31;63666;52.284;20.890;2023-07-20T15:52:01;25.19;51.50
41142;SHT31;63666;52.284;20.890;2023-07-20T15:54:36;25.52;51.15
41142;SHT31;63666;52.284;20.890;2023-07-20T15:57:10;25.79;50.44
41142;SHT31;63666;52.284;20.890;2023-07-20T15:59:44;25.83;50.28
41142;SHT31;63666;52.284;20.890;2023-07-20T16:02:19;25.87;50.14
41142;SHT31;63666;52.284;20.890;2023-07-20T16:04:53;25.81;50.08
41142;SHT31;63666;52.284;20.890;2023-07-20T16:07:42;25.72;50.09
41142;SHT31;63666;52.284;20.890;2023-07-20T16:10:16;25.77;50.15
41142;SHT31;63666;52.284;20.890;2023-07-20T16:12:50;25.87;49.99
41142;SHT31;63666;52.284;20.890;2023-07-20T16:15:24;25.91;49.86